Time;durP1;ratioP1;P1;durP2;ratioP2;P2;SDS_P1;SDS_P2;PMS_P1;PMS_P2;Temp;Humidity;BMP_temperature;BMP_pressure;BME280_temperature;BME280_humidity;BME280_pressure;Samples;Min_cycle;Max_cycle;Signal;HPM_P1;HPM_P2
2024/01/04 00:01:14;;;;;;;2.28;0.60;;;7.10;99.90;;;9.31;100.00;98174.63;4975063;28;20035;-79
2024/01/04 00:03:41;;;;;;;2.70;0.80;;;7.10;99.90;;;9.29;100.00;98187.66;4986699;28;20042;-81
2024/01/04 00:06:07;;;;;;;2.47;0.75;;;7.10;99.90;;;9.20;100.00;98173.78;4973614;28;20039;-79
2024/01/04 00:08:33;;;;;;;2.25;0.90;;;7.00;99.90;;;9.30;100.00;98189.31;4975452;28;20037;-81
2024/01/04 00:11:03;;;;;;;1.70;0.60;;;7.00;99.90;;;9.38;100.00;98177.06;4974936;28;20494;-80
2024/01/04 00:13:29;;;;;;;3.63;0.70;;;7.00;99.90;;;9.23;100.00;98175.13;4986942;28;20054;-80
2024/01/04 00:15:54;;;;;;;1.20;0.60;;;7.00;99.90;;;9.06;100.00;98180.78;4975159;28;20030;-81
2024/01/04 00:18:20;;;;;;;3.97;0.90;;;7.00;99.90;;;9.14;100.00;98169.38;4973928;28;20049;-80
2024/01/04 00:20:47;;;;;;;3.45;1.10;;;7.00;99.90;;;9.29;100.00;98179.50;4988764;28;20034;-81
2024/01/04 00:23:13;;;;;;;4.03;1.13;;;7.00;99.90;;;9.32;100.00;98175.41;4978878;28;20126;-81
2024/01/04 00:25:38;;;;;;;3.55;1.10;;;7.00;99.90;;;9.32;100.00;98187.13;4975647;28;20414;-82
2024/01/04 00:28:05;;;;;;;2.20;1.00;;;7.10;99.90;;;9.43;100.00;98189.84;4975017;28;20034;-82
2024/01/04 00:30:30;;;;;;;5.82;1.30;;;7.10;99.90;;;9.49;100.00;98188.78;4988364;28;20038;-81
2024/01/04 00:32:56;;;;;;;2.17;1.15;;;7.10;99.90;;;9.50;100.00;98185.78;4975765;28;20670;-80
2024/01/04 00:35:22;;;;;;;3.08;1.08;;;7.10;99.90;;;9.61;100.00;98197.50;4988640;28;20566;-81
2024/01/04 00:37:49;;;;;;;5.22;1.52;;;7.10;99.90;;;9.61;100.00;98193.97;4980799;28;20114;-80
2024/01/04 00:40:16;;;;;;;4.63;1.90;;;7.10;99.90;;;9.51;100.00;98192.03;4974926;28;20046;-80
2024/01/04 00:42:41;;;;;;;5.95;1.95;;;7.20;99.90;;;9.66;100.00;98204.06;4973398;28;20090;-81
2024/01/04 00:45:07;;;;;;;5.35;2.42;;;7.20;99.90;;;9.73;100.00;98201.88;4973731;28;20144;-81
2024/01/04 00:47:33;;;;;;;7.20;2.70;;;7.30;99.90;;;9.72;100.00;98200.25;4990464;28;20039;-82
2024/01/04 00:49:59;;;;;;;9.80;2.90;;;7.30;99.90;;;9.78;100.00;98204.59;4989342;28;20089;-82
2024/01/04 00:52:25;;;;;;;7.20;2.90;;;7.30;99.90;;;9.93;100.00;98207.34;4989318;28;20045;-82
2024/01/04 00:54:50;;;;;;;5.88;3.13;;;7.30;99.90;;;9.77;100.00;98203.78;4977803;28;20065;-82
2024/01/04 00:57:16;;;;;;;9.77;4.30;;;7.30;99.90;;;9.88;100.00;98214.69;4973485;28;20156;-82
2024/01/04 00:59:42;;;;;;;7.45;3.63;;;7.40;99.90;;;9.90;100.00;98202.44;4974559;28;20046;-82
2024/01/04 01:02:07;;;;;;;7.72;3.70;;;7.40;99.90;;;9.59;100.00;98205.13;4976808;28;20046;-80
2024/01/04 01:04:33;;;;;;;8.45;3.85;;;7.40;99.90;;;9.54;100.00;98209.75;4972940;28;20047;-82
2024/01/04 01:06:59;;;;;;;10.55;3.78;;;7.50;99.90;;;9.64;100.00;98210.59;4973370;28;20039;-82
2024/01/04 01:09:25;;;;;;;9.35;3.92;;;7.50;99.90;;;9.72;100.00;98216.56;4983387;28;20038;-82
2024/01/04 01:11:50;;;;;;;7.78;3.90;;;7.50;99.90;;;9.90;100.00;98224.22;4964533;28;20043;-82
2024/01/04 01:14:16;;;;;;;10.57;3.78;;;7.60;99.90;;;9.59;100.00;98207.03;4978282;28;20047;-80
2024/01/04 01:16:42;;;;;;;6.57;3.38;;;7.60;99.90;;;9.85;100.00;98218.78;4986776;28;20474;-82
2024/01/04 01:19:07;;;;;;;10.45;3.28;;;7.60;99.90;;;9.76;100.00;98234.00;4986508;28;20049;-82
2024/01/04 01:21:33;;;;;;;7.00;3.10;;;7.60;99.90;;;9.90;100.00;98232.41;4977506;28;20046;-81
2024/01/04 01:23:59;;;;;;;9.45;3.10;;;7.60;99.90;;;9.71;100.00;98228.56;4973134;28;20039;-80
2024/01/04 01:26:25;;;;;;;8.40;3.30;;;7.70;99.90;;;9.75;100.00;98248.69;4985067;28;20494;-81
2024/01/04 01:28:50;;;;;;;7.70;3.28;;;7.60;99.90;;;9.40;100.00;98245.63;4973218;28;20117;-81
2024/01/04 01:31:16;;;;;;;10.00;3.20;;;7.70;99.90;;;9.33;100.00;98243.19;4984940;28;20073;-81
2024/01/04 01:33:44;;;;;;;6.03;2.70;;;7.60;99.90;;;9.55;100.00;98233.16;4972137;28;20065;-81
2024/01/04 01:36:10;;;;;;;7.05;2.70;;;7.60;99.90;;;9.56;100.00;98238.34;4985515;28;20493;-80
2024/01/04 01:38:36;;;;;;;8.32;2.70;;;7.50;99.90;;;9.47;100.00;98248.94;4987818;28;20138;-81
2024/01/04 01:41:01;;;;;;;6.47;2.47;;;7.50;99.90;;;9.70;100.00;98256.88;4980333;28;20042;-81
2024/01/04 01:43:27;;;;;;;6.80;2.25;;;7.40;99.90;;;9.49;100.00;98262.25;4973037;28;20455;-79
2024/01/04 01:45:53;;;;;;;7.28;2.55;;;7.40;99.90;;;9.24;100.00;98268.44;4972812;28;20038;-82
2024/01/04 01:48:19;;;;;;;5.63;2.45;;;7.40;99.90;;;9.25;100.00;98262.72;4972685;28;20452;-81
2024/01/04 01:50:45;;;;;;;6.63;2.45;;;7.40;99.90;;;9.47;100.00;98269.88;4981361;28;20046;-80
2024/01/04 01:53:12;;;;;;;4.47;2.10;;;7.40;99.90;;;9.49;100.00;98262.25;4984630;28;20057;-81
2024/01/04 01:55:38;;;;;;;5.53;2.15;;;7.40;99.90;;;9.45;100.00;98266.59;4987141;28;20038;-79
2024/01/04 01:58:04;;;;;;;6.70;2.60;;;7.40;99.90;;;9.49;100.00;98276.69;4982196;28;20093;-81
2024/01/04 02:00:31;;;;;;;7.35;2.17;;;7.40;99.90;;;9.49;100.00;98275.88;4972268;28;20038;-81
2024/01/04 02:02:59;;;;;;;8.25;2.30;;;7.40;99.90;;;9.41;100.00;98281.84;4972428;28;20030;-81
2024/01/04 02:05:25;;;;;;;;;;;7.30;99.90;;;9.57;100.00;98288.16;4972780;28;20070;-81
2024/01/04 02:07:50;;;;;;;4.28;1.50;;;7.30;99.90;;;9.39;100.00;98292.97;4972323;28;19960;-81
2024/01/04 02:10:16;;;;;;;4.82;1.42;;;7.30;99.90;;;9.43;100.00;98290.56;4972325;28;20073;-80
2024/01/04 02:12:42;;;;;;;3.80;1.23;;;7.30;99.90;;;9.35;100.00;98297.31;4982753;28;20398;-80
2024/01/04 02:15:08;;;;;;;3.47;1.05;;;7.30;99.90;;;9.34;100.00;98304.69;4975487;28;20057;-83
2024/01/04 02:17:35;;;;;;;4.43;1.20;;;7.30;99.90;;;9.27;100.00;98306.81;4984308;28;20449;-82
2024/01/04 02:20:01;;;;;;;5.18;1.30;;;7.30;99.90;;;9.34;100.00;98309.28;4972219;28;20031;-83
2024/01/04 02:22:27;;;;;;;5.40;1.73;;;7.30;99.90;;;9.16;100.00;98324.19;4985555;28;20176;-82
2024/01/04 02:24:52;;;;;;;3.72;1.48;;;7.30;99.90;;;9.19;100.00;98318.22;4972042;28;20720;-83
2024/01/04 02:27:18;;;;;;;4.10;1.50;;;7.30;99.90;;;9.37;100.00;98314.19;4972550;28;20919;-84
2024/01/04 02:29:44;;;;;;;5.38;1.80;;;7.30;99.90;;;9.34;100.00;98320.16;4984139;28;20039;-84
2024/01/04 02:32:10;;;;;;;3.90;1.55;;;7.30;99.90;;;9.23;100.00;98327.47;4972226;28;20045;-83
2024/01/04 02:34:36;;;;;;;5.45;1.98;;;7.30;99.90;;;9.34;100.00;98342.78;4972535;28;20042;-78
2024/01/04 02:37:02;;;;;;;6.70;2.05;;;7.40;99.90;;;8.90;100.00;98330.31;4970258;28;20043;-82
2024/01/04 02:39:27;;;;;;;8.23;2.60;;;7.40;99.90;;;9.14;100.00;98334.50;4982568;28;20474;-83
2024/01/04 02:41:53;;;;;;;5.88;2.50;;;7.40;99.90;;;9.23;100.00;98343.78;4973469;28;20035;-82
2024/01/04 02:44:19;;;;;;;6.53;2.65;;;7.40;99.90;;;9.15;100.00;98342.41;4978300;28;20101;-83
2024/01/04 02:46:45;;;;;;;7.40;2.63;;;7.40;99.90;;;9.20;100.00;98341.59;4980763;28;20096;-82
2024/01/04 02:49:10;;;;;;;8.02;2.90;;;7.40;99.90;;;9.11;100.00;98345.91;4976387;28;20034;-83
2024/01/04 02:51:36;;;;;;;6.32;2.70;;;7.40;99.90;;;9.19;100.00;98340.81;4973316;28;20039;-81
2024/01/04 02:54:02;;;;;;;4.47;2.65;;;7.40;99.90;;;9.37;100.00;98351.50;4971477;28;20038;-82
2024/01/04 02:56:27;;;;;;;5.55;2.92;;;7.40;99.90;;;9.45;100.00;98356.41;4986233;28;20402;-81
2024/01/04 02:58:54;;;;;;;6.65;2.75;;;7.30;99.90;;;9.23;100.00;98364.75;4986412;28;20043;-80
2024/01/04 03:01:23;;;;;;;9.40;2.92;;;7.40;99.90;;;9.24;100.00;98382.72;4978364;28;20453;-80
2024/01/04 03:03:55;;;;;;;5.93;2.47;;;7.40;99.90;;;8.98;100.00;98372.47;4971601;28;20058;-83
2024/01/04 03:06:33;;;;;;;6.47;2.83;;;7.40;99.90;;;9.05;100.00;98375.81;4976348;28;20047;-82
2024/01/04 03:08:59;;;;;;;6.05;2.83;;;7.40;99.90;;;9.15;100.00;98393.28;4971660;28;20047;-80
2024/01/04 03:11:24;;;;;;;6.57;3.10;;;7.50;99.90;;;8.83;100.00;98392.22;4990051;28;20065;-82
2024/01/04 03:13:50;;;;;;;5.47;2.85;;;7.50;99.90;;;9.19;100.00;98388.94;4974775;28;20039;-80
2024/01/04 03:16:19;;;;;;;4.88;2.55;;;7.50;99.90;;;9.05;100.00;98392.13;4971397;28;20043;-84
2024/01/04 03:18:45;;;;;;;6.47;3.20;;;7.40;99.90;;;9.11;100.00;98413.91;4983562;28;20049;-79
2024/01/04 03:21:11;;;;;;;4.85;2.50;;;7.50;99.90;;;9.04;100.00;98390.50;4980352;28;20490;-80
2024/01/04 03:23:36;;;;;;;5.25;2.50;;;7.50;99.90;;;9.29;100.00;98421.66;4978729;28;20030;-79
2024/01/04 03:26:02;;;;;;;5.78;3.00;;;7.50;99.90;;;9.21;100.00;98409.38;4988082;28;20153;-80
2024/01/04 03:28:28;;;;;;;6.13;2.60;;;7.50;99.90;;;9.12;100.00;98410.13;4975418;28;20776;-81
2024/01/04 03:30:54;;;;;;;7.95;2.60;;;7.40;99.90;;;9.17;100.00;98415.59;4979305;28;20050;-79
2024/01/04 03:33:19;;;;;;;5.72;2.47;;;7.40;99.90;;;8.88;100.00;98413.22;4980137;28;20038;-82
2024/01/04 03:35:45;;;;;;;4.78;2.20;;;7.50;99.90;;;9.21;100.00;98422.13;4987653;28;20034;-85
2024/01/04 03:38:11;;;;;;;5.00;2.53;;;7.50;99.90;;;8.92;100.00;98419.75;4968885;28;20074;-81
2024/01/04 03:40:36;;;;;;;6.13;2.40;;;7.50;99.90;;;8.86;100.00;98415.38;4983937;28;20117;-85
2024/01/04 03:43:03;;;;;;;4.10;2.13;;;7.50;99.90;;;8.91;100.00;98431.72;4978819;28;20038;-80
2024/01/04 03:45:31;;;;;;;4.57;2.23;;;7.50;99.90;;;9.18;100.00;98431.66;4986517;28;20084;-84
2024/01/04 03:47:58;;;;;;;5.60;2.00;;;7.40;99.90;;;9.10;100.00;98439.47;4975544;28;20034;-80
2024/01/04 03:50:23;;;;;;;4.93;1.90;;;7.40;99.90;;;8.91;100.00;98442.59;4979045;28;20038;-81
2024/01/04 03:52:49;;;;;;;5.95;1.80;;;7.40;99.90;;;9.00;100.00;98435.59;4981493;28;20157;-84
2024/01/04 03:55:15;;;;;;;7.10;1.77;;;7.50;99.90;;;8.89;100.00;98444.75;4978733;28;20482;-80
2024/01/04 03:57:44;;;;;;;6.40;1.55;;;7.40;99.90;;;8.90;100.00;98451.84;4974357;28;20053;-81
2024/01/04 04:00:10;;;;;;;4.88;1.52;;;7.40;99.90;;;8.61;100.00;98433.09;4974279;28;20058;-86
2024/01/04 04:02:39;;;;;;;4.97;1.50;;;7.30;99.90;;;8.54;100.00;98465.13;4992815;28;20035;-80
2024/01/04 04:05:05;;;;;;;3.70;1.48;;;7.40;99.90;;;8.76;100.00;98474.03;4986511;28;20039;-81
2024/01/04 04:07:31;;;;;;;3.78;1.40;;;7.30;99.90;;;8.64;100.00;98481.53;4974463;28;20042;-80
2024/01/04 04:09:57;;;;;;;2.90;1.30;;;7.40;99.90;;;8.68;100.00;98471.75;4974746;28;20498;-82
2024/01/04 04:12:24;;;;;;;3.40;1.33;;;7.30;99.90;;;8.73;100.00;98477.25;4972966;28;20046;-82
2024/01/04 04:14:51;;;;;;;6.07;1.52;;;7.30;99.90;;;8.45;100.00;98487.28;4974868;28;20042;-84
2024/01/04 04:17:24;;;;;;;4.07;1.48;;;7.30;99.90;;;8.15;100.00;98493.22;4974538;28;20034;-84
2024/01/04 04:19:51;;;;;;;3.80;1.80;;;7.20;99.90;;;8.16;100.00;98503.78;4980877;28;20121;-79
2024/01/04 04:22:16;;;;;;;3.17;1.45;;;7.00;99.90;;;7.91;100.00;98518.69;4974503;28;20035;-82
2024/01/04 04:24:42;;;;;;;3.83;1.33;;;6.90;99.90;;;7.97;100.00;98513.34;4983931;28;20035;-83
2024/01/04 04:27:08;;;;;;;4.60;1.90;;;6.80;99.90;;;7.59;100.00;98519.34;4984747;28;20105;-80
2024/01/04 04:29:33;;;;;;;4.97;2.78;;;6.60;99.90;;;7.71;100.00;98518.44;4976974;28;20623;-82
2024/01/04 04:31:59;;;;;;;3.72;1.52;;;6.40;99.90;;;7.11;100.00;98523.50;4967739;28;20041;-81
2024/01/04 04:34:25;;;;;;;2.45;1.30;;;6.20;99.90;;;7.02;100.00;98523.91;4973937;28;20113;-80
2024/01/04 04:36:51;;;;;;;2.13;1.00;;;6.00;99.90;;;6.83;100.00;98563.97;4974244;28;20101;-81
2024/01/04 04:39:16;;;;;;;2.42;1.02;;;5.90;99.90;;;7.08;100.00;98535.66;4985196;28;20104;-78
2024/01/04 04:41:42;;;;;;;2.53;0.82;;;5.90;99.90;;;6.98;100.00;98541.72;4991684;28;20049;-79
2024/01/04 04:44:08;;;;;;;2.78;1.20;;;5.80;99.90;;;7.15;100.00;98549.03;4985948;28;20048;-81
2024/01/04 04:46:33;;;;;;;1.20;0.88;;;5.80;99.90;;;6.96;100.00;98568.28;4985899;28;20041;-84
2024/01/04 04:48:59;;;;;;;2.00;0.82;;;5.70;99.90;;;7.01;100.00;98571.06;4974195;28;20395;-81
2024/01/04 04:51:25;;;;;;;2.00;0.90;;;5.70;99.90;;;6.97;100.00;98582.63;4973568;28;20043;-79
2024/01/04 04:53:54;;;;;;;2.25;0.90;;;5.60;99.90;;;6.96;100.00;98587.25;4976683;28;20153;-82
2024/01/04 04:56:20;;;;;;;2.58;1.35;;;5.50;99.90;;;6.68;100.00;98590.78;4973695;28;20035;-81
2024/01/04 04:58:45;;;;;;;6.05;1.60;;;5.50;99.90;;;6.73;100.00;98585.44;4973539;28;20504;-82
2024/01/04 05:01:13;;;;;;;4.68;1.10;;;5.40;99.90;;;6.86;100.00;98600.59;4975721;28;20035;-81
2024/01/04 05:03:39;;;;;;;2.63;1.08;;;5.40;99.90;;;6.98;100.00;98595.97;4972110;28;20089;-80
2024/01/04 05:06:08;;;;;;;2.97;1.30;;;5.40;99.90;;;6.99;100.00;98599.47;4973464;28;20127;-82
2024/01/04 05:08:34;;;;;;;2.85;1.00;;;5.40;99.90;;;6.62;100.00;98603.41;4980945;28;20100;-82
2024/01/04 05:10:59;;;;;;;4.20;1.30;;;5.40;99.90;;;6.94;100.00;98611.06;4988966;28;20042;-79
2024/01/04 05:13:25;;;;;;;2.00;1.17;;;5.40;99.90;;;6.67;100.00;98619.78;4979283;28;20177;-82
2024/01/04 05:15:51;;;;;;;3.22;1.33;;;5.40;99.90;;;6.96;100.00;98608.94;4978006;28;20035;-80
2024/01/04 05:18:16;;;;;;;4.15;1.30;;;5.40;99.90;;;6.82;100.00;98619.25;4973143;28;20475;-81
2024/01/04 05:20:42;;;;;;;4.22;1.30;;;5.40;99.90;;;7.04;100.00;98627.50;4989573;28;20034;-82
2024/01/04 05:23:08;;;;;;;3.67;1.70;;;5.40;99.90;;;6.67;100.00;98627.91;4975499;28;20457;-80
2024/01/04 05:25:34;;;;;;;3.10;1.63;;;5.40;99.90;;;6.95;100.00;98639.00;4999590;28;20058;-82
2024/01/04 05:27:59;;;;;;;4.38;1.48;;;5.50;99.90;;;7.08;100.00;98654.13;4983625;28;20039;-80
2024/01/04 05:30:25;;;;;;;3.45;1.48;;;5.50;99.90;;;7.36;100.00;98647.03;4976799;28;20035;-78
2024/01/04 05:32:51;;;;;;;4.18;1.70;;;5.50;99.90;;;7.21;100.00;98653.84;4973135;28;20062;-83
2024/01/04 05:35:17;;;;;;;3.22;1.50;;;5.50;99.90;;;7.30;100.00;98641.53;4976332;28;20034;-83
2024/01/04 05:37:43;;;;;;;4.35;1.55;;;5.50;99.90;;;6.92;100.00;98659.28;4971771;28;20068;-83
2024/01/04 05:40:09;;;;;;;4.57;1.30;;;5.60;99.90;;;7.01;100.00;98665.13;4975830;28;20555;-84
2024/01/04 05:42:35;;;;;;;2.33;1.40;;;5.60;99.90;;;6.93;100.00;98666.34;4975607;28;20147;-84
2024/01/04 05:45:04;;;;;;;3.92;1.27;;;5.70;99.90;;;7.26;100.00;98686.50;4984374;28;20034;-84
2024/01/04 05:47:29;;;;;;;3.45;1.10;;;5.70;99.90;;;6.93;100.00;98666.34;4972517;28;20056;-84
2024/01/04 05:49:55;;;;;;;2.53;0.95;;;5.70;99.90;;;6.96;100.00;98682.13;4972938;28;20466;-83
2024/01/04 05:52:21;;;;;;;2.58;0.80;;;5.60;99.90;;;6.88;100.00;98707.72;4980228;28;20042;-82
2024/01/04 05:54:46;;;;;;;2.45;0.82;;;5.60;99.90;;;6.71;100.00;98695.97;4983553;28;20034;-81
2024/01/04 05:57:12;;;;;;;1.95;0.77;;;5.50;99.90;;;6.61;100.00;98697.41;4993742;28;20042;-84
2024/01/04 05:59:38;;;;;;;3.20;0.80;;;5.40;99.90;;;6.59;100.00;98691.41;4966655;28;20059;-86
2024/01/04 06:02:04;;;;;;;2.35;1.10;;;5.40;99.90;;;6.95;100.00;98723.88;4979769;28;20038;-80
2024/01/04 06:04:29;;;;;;;1.48;0.88;;;5.40;99.90;;;7.01;100.00;98703.91;4987036;28;20039;-80
2024/01/04 06:06:55;;;;;;;5.97;1.48;;;5.40;99.90;;;6.54;100.00;98714.88;4972884;28;20397;-83
2024/01/04 06:09:21;;;;;;;3.40;1.33;;;5.40;99.90;;;6.99;100.00;98725.03;4976750;28;20027;-84
2024/01/04 06:11:48;;;;;;;3.13;1.17;;;5.40;99.90;;;6.99;100.00;98729.63;4972480;28;20038;-85
2024/01/04 06:14:14;;;;;;;4.68;1.02;;;5.40;99.90;;;6.82;100.00;98740.38;4973369;28;20474;-91
2024/01/04 06:16:39;;;;;;;2.85;1.20;;;5.40;99.90;;;6.87;100.00;98735.91;4977122;28;20046;-85
2024/01/04 06:19:05;;;;;;;2.05;0.80;;;5.50;99.90;;;6.92;100.00;98746.03;4981807;28;20066;-80
2024/01/04 06:21:31;;;;;;;5.53;1.75;;;5.50;99.90;;;6.93;100.00;98768.53;4983610;28;20050;-85
2024/01/04 06:23:58;;;;;;;1.85;1.00;;;5.50;99.90;;;7.13;100.00;98762.69;4974895;28;20045;-83
2024/01/04 06:26:24;;;;;;;4.65;1.60;;;5.50;99.90;;;6.97;100.00;98769.69;4978347;28;20409;-84
2024/01/04 06:28:50;;;;;;;3.15;1.27;;;5.50;99.90;;;6.85;100.00;98778.69;4986602;28;20042;-87
2024/01/04 06:31:16;;;;;;;2.80;1.20;;;5.50;99.90;;;6.57;100.00;98777.53;4972500;28;20078;-83
2024/01/04 06:33:42;;;;;;;2.88;0.93;;;5.50;99.90;;;6.36;100.00;98803.31;4971411;28;20035;-86
2024/01/04 06:36:08;;;;;;;3.03;1.30;;;5.40;99.90;;;6.23;100.00;98798.13;4980399;28;20074;-81
2024/01/04 06:38:36;;;;;;;4.35;1.35;;;5.30;99.90;;;6.31;100.00;98803.19;4987545;28;20034;-84
2024/01/04 06:41:03;;;;;;;2.42;1.20;;;5.20;99.90;;;6.50;100.00;98781.44;4987503;28;20042;-81
2024/01/04 06:43:30;;;;;;;4.70;1.30;;;5.10;99.90;;;6.55;100.00;98805.91;4990640;28;20480;-80
2024/01/04 06:45:57;;;;;;;3.78;2.15;;;5.10;99.90;;;6.47;100.00;98809.81;4988666;28;20072;-83
2024/01/04 06:48:23;;;;;;;3.15;1.00;;;5.20;99.90;;;6.50;100.00;98809.34;4990667;28;20041;-83
2024/01/04 06:50:49;;;;;;;3.88;1.05;;;5.20;99.90;;;6.40;100.00;98815.34;4985903;28;20042;-85
2024/01/04 06:53:15;;;;;;;2.17;1.08;;;5.20;99.90;;;6.48;100.00;98830.41;4988543;28;20062;-79
2024/01/04 06:55:42;;;;;;;5.57;1.10;;;5.20;99.90;;;6.59;100.00;98809.81;4987689;28;20507;-79
2024/01/04 06:58:09;;;;;;;1.73;1.00;;;5.30;99.90;;;6.67;100.00;98841.16;4990763;28;20038;-81
2024/01/04 07:00:36;;;;;;;2.97;1.10;;;5.30;99.90;;;6.75;100.00;98847.06;4991082;28;20588;-86
2024/01/04 07:03:03;;;;;;;6.15;1.10;;;5.30;99.90;;;6.70;100.00;98863.19;4991270;28;20034;-83
2024/01/04 07:05:30;;;;;;;1.65;0.90;;;5.30;99.90;;;6.95;100.00;98867.56;4990912;28;20104;-80
2024/01/04 07:07:56;;;;;;;3.17;0.85;;;5.20;99.90;;;6.76;100.00;98866.81;4988396;28;20066;-82
2024/01/04 07:10:22;;;;;;;3.50;0.88;;;5.20;99.90;;;6.85;100.00;98870.84;5002652;28;20046;-79
2024/01/04 07:12:48;;;;;;;3.63;1.00;;;5.20;99.90;;;6.84;100.00;98884.63;4988999;28;20026;-80
2024/01/04 07:15:14;;;;;;;2.08;0.85;;;5.20;99.90;;;6.55;100.00;98888.03;4990164;28;20030;-84
2024/01/04 07:17:40;;;;;;;2.38;0.80;;;5.10;99.90;;;6.40;100.00;98879.53;5001170;28;20378;-82
2024/01/04 07:20:07;;;;;;;2.00;0.70;;;5.20;99.90;;;6.80;100.00;98897.00;4983426;28;20058;-80
2024/01/04 07:22:33;;;;;;;2.15;0.57;;;5.20;99.90;;;6.31;100.00;98906.13;4975489;28;20035;-83
2024/01/04 07:24:59;;;;;;;1.33;0.60;;;5.10;99.90;;;6.57;100.00;98904.88;5002928;28;20089;-79
2024/01/04 07:27:27;;;;;;;2.05;0.70;;;5.10;99.90;;;6.20;100.00;98905.03;4980999;28;20034;-84
2024/01/04 07:29:54;;;;;;;1.92;0.68;;;5.00;99.90;;;6.21;100.00;98908.56;4975596;28;20038;-85
2024/01/04 07:32:21;;;;;;;2.35;0.50;;;5.00;99.90;;;6.01;100.00;98891.56;4991876;28;20038;-82
2024/01/04 07:34:46;;;;;;;2.63;0.80;;;4.90;99.90;;;6.41;100.00;98909.09;4983554;28;20073;-81
2024/01/04 07:37:13;;;;;;;1.27;0.57;;;4.90;99.90;;;6.13;100.00;98931.38;4980782;28;20514;-86
2024/01/04 07:39:41;;;;;;;2.75;0.60;;;4.90;99.90;;;6.12;100.00;98922.44;4992277;28;20049;-80
2024/01/04 07:42:07;;;;;;;;;;;4.90;99.90;;;6.08;100.00;98926.63;4976204;28;20086;-87
2024/01/04 07:44:33;;;;;;;1.08;0.50;;;4.80;99.90;;;6.27;100.00;98937.44;4988111;28;20095;-85
2024/01/04 07:46:59;;;;;;;3.72;0.80;;;4.80;99.90;;;6.22;100.00;98945.44;4979960;28;20088;-80
2024/01/04 07:49:24;;;;;;;3.67;0.70;;;4.80;99.90;;;6.02;100.00;98955.47;4991506;28;20030;-79
2024/01/04 07:51:52;;;;;;;1.45;0.30;;;4.80;99.90;;;6.01;100.00;98961.09;4990907;28;20409;-81
2024/01/04 07:54:18;;;;;;;0.80;0.40;;;4.90;99.90;;;5.96;100.00;98944.69;4983170;28;20178;-85
2024/01/04 07:56:44;;;;;;;1.98;0.60;;;4.90;99.90;;;6.25;100.00;98969.34;4980092;28;20501;-82
2024/01/04 07:59:10;;;;;;;1.50;0.50;;;5.00;99.90;;;6.32;100.00;98976.31;4977211;28;20066;-86
2024/01/04 08:01:36;;;;;;;1.90;0.85;;;4.90;99.90;;;6.00;100.00;98979.22;4986141;28;20045;-84
2024/01/04 08:04:03;;;;;;;2.63;0.85;;;5.00;99.90;;;6.17;100.00;98984.84;4977285;28;20031;-87
2024/01/04 08:06:30;;;;;;;1.58;0.57;;;4.90;99.90;;;6.00;100.00;98978.38;4981941;28;20046;-85
2024/01/04 08:08:56;;;;;;;3.28;1.00;;;4.90;99.90;;;6.00;100.00;98994.63;4978084;28;20501;-85
2024/01/04 08:11:23;;;;;;;2.97;0.70;;;4.90;99.90;;;5.94;100.00;98993.63;4979860;28;20042;-85
2024/01/04 08:13:50;;;;;;;2.28;0.88;;;4.90;99.90;;;6.13;100.00;98999.91;4982506;28;20050;-86
2024/01/04 08:16:16;;;;;;;2.85;0.95;;;4.90;99.90;;;5.99;100.00;99034.41;4980086;28;20042;-81
2024/01/04 08:18:42;;;;;;;2.13;1.10;;;4.90;99.90;;;6.13;100.00;99021.56;4977454;28;20050;-81
2024/01/04 08:21:08;;;;;;;3.42;1.10;;;4.90;99.90;;;6.13;100.00;99028.84;4979833;28;20074;-85
2024/01/04 08:23:33;;;;;;;4.72;1.25;;;4.80;99.90;;;6.03;100.00;99032.09;4980040;28;20038;-86
2024/01/04 08:26:04;;;;;;;3.03;1.30;;;4.80;99.90;;;5.30;100.00;99045.31;4981709;28;20043;-84
2024/01/04 08:28:30;;;;;;;4.20;1.17;;;4.70;99.90;;;5.26;100.00;99077.34;4984010;28;20039;-83
2024/01/04 08:30:55;;;;;;;3.13;1.45;;;4.60;99.90;;;5.25;100.00;99050.56;4977190;28;20038;-84
2024/01/04 08:33:21;;;;;;;4.18;1.42;;;4.50;99.90;;;5.32;100.00;99060.28;4982059;28;20042;-84
2024/01/04 08:35:47;;;;;;;1.77;1.10;;;4.50;99.90;;;5.61;100.00;99066.03;4982803;28;20047;-84
2024/01/04 08:38:12;;;;;;;2.28;1.20;;;4.40;99.90;;;5.59;100.00;99065.44;4985007;28;20039;-85
2024/01/04 08:40:38;;;;;;;2.60;1.35;;;4.40;99.90;;;5.57;100.00;99066.69;4979750;28;20071;-84
2024/01/04 08:43:06;;;;;;;4.32;1.20;;;4.40;99.90;;;5.49;100.00;99069.69;4979228;28;20482;-84
2024/01/04 08:45:32;;;;;;;1.92;0.98;;;4.50;99.90;;;5.56;100.00;99073.97;4982373;28;20125;-84
2024/01/04 08:47:58;;;;;;;2.58;0.93;;;4.50;99.90;;;5.21;100.00;99079.91;4979682;28;20068;-80
2024/01/04 08:50:24;;;;;;;2.97;1.10;;;4.50;99.90;;;5.38;100.00;99076.66;4978648;28;20042;-84
2024/01/04 08:52:49;;;;;;;2.53;1.10;;;4.50;99.90;;;5.70;100.00;99084.69;4978434;28;20078;-82
2024/01/04 08:55:17;;;;;;;2.45;0.90;;;4.50;99.90;;;5.43;100.00;99072.22;4982874;28;20114;-86
2024/01/04 08:57:43;;;;;;;2.20;0.70;;;4.50;99.90;;;5.40;100.00;99096.19;4987152;28;20108;-83
2024/01/04 09:00:10;;;;;;;2.08;1.00;;;4.50;99.90;;;5.76;100.00;99084.63;4969690;28;20082;-80
2024/01/04 09:02:37;;;;;;;1.75;0.80;;;4.50;99.90;;;6.10;100.00;99086.19;4980845;28;20030;-83
2024/01/04 09:05:03;;;;;;;1.70;0.73;;;4.60;99.90;;;6.00;100.00;99087.50;4964717;28;20026;-83
2024/01/04 09:07:29;;;;;;;1.75;0.80;;;4.60;99.90;;;5.54;100.00;99100.41;4984309;28;20053;-84
2024/01/04 09:09:55;;;;;;;3.25;1.30;;;4.60;99.90;;;5.73;100.00;99108.59;4973034;28;20031;-83
2024/01/04 09:12:20;;;;;;;1.75;1.10;;;4.50;99.90;;;5.95;100.00;99106.28;4976507;28;22262;-82
2024/01/04 09:14:47;;;;;;;1.83;1.08;;;4.50;99.90;;;5.42;100.00;99107.63;4977759;28;20042;-83
2024/01/04 09:17:12;;;;;;;3.33;1.55;;;4.50;99.90;;;5.87;100.00;99126.38;4974955;28;20042;-85
2024/01/04 09:19:40;;;;;;;2.70;1.50;;;4.40;99.90;;;5.62;100.00;99134.50;4973479;28;20093;-86
2024/01/04 09:22:07;;;;;;;3.25;1.50;;;4.40;99.90;;;5.23;100.00;99150.00;4989031;28;20093;-85
2024/01/04 09:24:33;;;;;;;3.38;1.83;;;4.40;99.90;;;5.67;100.00;99137.34;4988544;28;20034;-86
2024/01/04 09:26:59;;;;;;;3.83;1.90;;;4.40;99.90;;;5.85;100.00;99152.84;4987136;28;20049;-84
2024/01/04 09:29:24;;;;;;;4.88;2.17;;;4.40;99.90;;;5.53;100.00;99160.97;4987681;28;20109;-85
2024/01/04 09:31:50;;;;;;;3.55;1.77;;;4.50;99.90;;;5.33;100.00;99161.16;4988837;28;20034;-82
2024/01/04 09:34:16;;;;;;;7.05;2.25;;;4.40;99.90;;;5.93;100.00;99159.00;4987962;28;20022;-86
2024/01/04 09:36:41;;;;;;;4.90;2.50;;;4.50;99.90;;;5.94;100.00;99166.88;4988660;28;20385;-84
2024/01/04 09:39:07;;;;;;;5.38;2.50;;;4.50;99.90;;;5.74;100.00;99189.56;4988045;28;20047;-85
2024/01/04 09:41:36;;;;;;;5.40;3.10;;;4.40;99.90;;;5.73;100.00;99187.06;4985037;28;20044;-85
2024/01/04 09:44:05;;;;;;;4.47;2.70;;;4.50;99.90;;;5.66;100.00;99191.72;4979939;28;20027;-83
2024/01/04 09:46:38;;;;;;;4.80;2.60;;;4.40;99.90;;;5.88;100.00;99197.56;4976460;28;20108;-85
2024/01/04 09:49:06;;;;;;;5.68;2.65;;;4.50;99.90;;;5.85;100.00;99198.84;4979765;28;20463;-85
2024/01/04 09:51:37;;;;;;;5.57;2.80;;;4.60;99.90;;;6.36;100.00;99197.97;4983930;28;20046;-84
2024/01/04 09:54:10;;;;;;;5.70;3.35;;;4.80;99.90;;;6.18;100.00;99200.44;4979394;28;20433;-85
2024/01/04 09:56:44;;;;;;;4.70;2.80;;;4.90;99.90;;;6.28;100.00;99199.94;4989972;28;20030;-86
2024/01/04 09:59:13;;;;;;;6.38;3.00;;;4.90;99.90;;;6.10;100.00;99210.72;4973112;28;20093;-83
2024/01/04 10:01:39;;;;;;;6.00;3.03;;;4.90;99.90;;;5.95;100.00;99211.84;4978851;28;20040;-85
2024/01/04 10:04:11;;;;;;;5.22;2.95;;;4.80;99.90;;;6.70;100.00;99220.94;4972330;28;20042;-80
2024/01/04 10:06:41;;;;;;;6.28;2.85;;;4.90;99.90;;;6.64;100.00;99223.72;4966873;28;20050;-80
2024/01/04 10:09:32;;;;;;;5.45;3.30;;;5.20;99.90;;;6.15;100.00;99236.09;4986047;28;20096;-82
2024/01/04 10:12:02;;;;;;;6.75;3.35;;;4.90;99.90;;;6.30;100.00;99252.00;4971958;28;20047;-83
2024/01/04 10:14:28;;;;;;;5.05;3.42;;;4.90;99.90;;;6.77;100.00;99231.72;4977168;28;20079;-79
2024/01/04 10:16:59;;;;;;;4.78;3.10;;;5.00;99.90;;;5.97;100.00;99247.69;4972366;28;20053;-85
2024/01/04 10:19:25;;;;;;;5.68;3.40;;;5.00;99.90;;;6.04;100.00;99240.34;4975044;28;20049;-86
2024/01/04 10:21:51;;;;;;;4.47;3.08;;;5.00;99.90;;;5.50;100.00;99261.53;4984300;28;20062;-82